Time;durP1;ratioP1;P1;durP2;ratioP2;P2;SDS_P1;SDS_P2;PMS_P1;PMS_P2;Temp;Humidity;BMP_temperature;BMP_pressure;BME280_temperature;BME280_humidity;BME280_pressure;Samples;Min_cycle;Max_cycle;Signal;HPM_P1;HPM_P2
2021/08/08 00:02:12;;;;;;;2.42;1.10;;;16.80;99.90;;;;;;5072605;28;20040;-82
2021/08/08 00:04:38;;;;;;;2.03;1.05;;;18.90;99.90;;;;;;5056632;28;20029;-81
2021/08/08 00:07:04;;;;;;;3.88;1.40;;;16.80;99.90;;;;;;5064236;28;20066;-82
2021/08/08 00:09:29;;;;;;;3.33;1.00;;;16.80;99.90;;;;;;5054784;28;20029;-83
2021/08/08 00:11:55;;;;;;;3.25;0.98;;;;;;;;;;5051069;28;20037;-82
2021/08/08 00:14:22;;;;;;;1.52;0.90;;;;;;;;;;5046912;28;20048;-80
2021/08/08 00:16:48;;;;;;;2.97;0.98;;;16.80;99.90;;;;;;5059371;28;20061;-83
2021/08/08 00:19:14;;;;;;;3.83;1.13;;;;;;;;;;5062744;28;20110;-83
2021/08/08 00:21:40;;;;;;;1.88;0.80;;;;;;;;;;5073751;28;20024;-82
2021/08/08 00:24:06;;;;;;;2.45;1.08;;;;;;;;;;5071452;28;20021;-81
2021/08/08 00:26:33;;;;;;;1.13;0.70;;;16.80;99.90;;;;;;5066252;28;20044;-81
2021/08/08 00:28:59;;;;;;;2.10;0.90;;;;;;;;;;5064491;28;20033;-79
2021/08/08 00:31:25;;;;;;;2.33;0.88;;;;;;;;;;5050447;28;20052;-82
2021/08/08 00:33:52;;;;;;;3.33;0.80;;;16.70;99.90;;;;;;5061077;28;20096;-84
2021/08/08 00:36:18;;;;;;;2.15;0.90;;;;;;;;;;5063682;28;20123;-82
2021/08/08 00:38:44;;;;;;;3.97;1.10;;;;;;;;;;5058872;28;20091;-81
2021/08/08 00:41:10;;;;;;;5.05;0.90;;;;;;;;;;5055615;28;20009;-79
2021/08/08 00:43:36;;;;;;;3.15;1.08;;;;;;;;;;5061111;28;20048;-82
2021/08/08 00:46:02;;;;;;;8.00;1.20;;;;;;;;;;5064179;28;20025;-82
2021/08/08 00:48:28;;;;;;;1.67;0.70;;;;;;;;;;5072492;28;20043;-82
2021/08/08 00:50:54;;;;;;;2.72;1.13;;;16.50;99.90;;;;;;5061617;28;20135;-82
2021/08/08 00:53:19;;;;;;;1.88;0.90;;;17.50;99.90;;;;;;5063708;28;20073;-81
2021/08/08 00:55:45;;;;;;;1.98;0.98;;;16.40;99.90;;;;;;5056745;28;20056;-82
2021/08/08 00:58:11;;;;;;;1.85;1.00;;;;;;;;;;5062276;28;20128;-82
2021/08/08 01:00:38;;;;;;;1.70;0.88;;;16.50;99.90;;;;;;5051428;28;20104;-82
2021/08/08 01:03:07;;;;;;;2.45;0.90;;;19.80;99.90;;;;;;5060554;28;20022;-81
2021/08/08 01:05:37;;;;;;;3.88;0.95;;;16.40;99.90;;;;;;5066757;28;20029;-81
2021/08/08 01:08:06;;;;;;;3.47;0.80;;;16.40;99.90;;;;;;5060585;28;20025;-80
2021/08/08 01:10:33;;;;;;;2.10;0.90;;;16.40;99.90;;;;;;5043335;28;20120;-80
2021/08/08 01:12:59;;;;;;;1.33;0.70;;;19.60;99.90;;;;;;5057365;28;20024;-81
2021/08/08 01:15:25;;;;;;;2.35;1.15;;;16.30;99.90;;;;;;5064756;28;20021;-80
2021/08/08 01:17:52;;;;;;;2.97;1.00;;;17.50;99.90;;;;;;5071260;28;20466;-81
2021/08/08 01:20:18;;;;;;;1.75;0.85;;;16.30;99.90;;;;;;5046084;28;20028;-83
2021/08/08 01:22:49;;;;;;;3.60;1.10;;;16.20;99.90;;;;;;5059147;28;20020;-83
2021/08/08 01:25:15;;;;;;;3.65;0.95;;;17.10;99.90;;;;;;5068659;28;20047;-84
2021/08/08 01:27:41;;;;;;;2.83;0.82;;;16.20;99.90;;;;;;5073953;28;20033;-80
2021/08/08 01:30:08;;;;;;;1.77;0.90;;;16.10;99.90;;;;;;5055714;28;20032;-83
2021/08/08 01:32:34;;;;;;;2.13;0.90;;;16.10;99.90;;;;;;5066184;28;20021;-79
2021/08/08 01:35:00;;;;;;;1.55;0.90;;;16.10;99.90;;;;;;5061346;28;20035;-80
2021/08/08 01:37:27;;;;;;;5.53;1.00;;;;;;;;;;5065910;28;20501;-80
2021/08/08 01:40:11;;;;;;;3.83;1.00;;;15.90;99.90;;;;;;5067245;28;20041;-84
2021/08/08 01:42:39;;;;;;;5.32;1.50;;;16.00;99.90;;;;;;5056966;28;20084;-81
2021/08/08 01:45:06;;;;;;;2.03;0.90;;;17.70;99.90;;;;;;5058730;28;20028;-81
2021/08/08 01:47:36;;;;;;;1.83;0.93;;;15.80;99.90;;;;;;5068042;28;20375;-79
2021/08/08 01:50:02;;;;;;;2.47;1.15;;;;;;;;;;5057190;28;20029;-81
2021/08/08 01:52:28;;;;;;;2.22;1.00;;;15.80;99.90;;;;;;5076146;28;20028;-82
2021/08/08 01:54:55;;;;;;;3.67;0.98;;;15.80;99.90;;;;;;5073936;28;20037;-82
2021/08/08 01:57:21;;;;;;;4.70;1.20;;;;;;;;;;5065239;28;20079;-83
2021/08/08 01:59:47;;;;;;;2.67;1.10;;;;;;;;;;5066121;28;20058;-81
2021/08/08 02:02:15;;;;;;;3.40;0.85;;;15.70;99.90;;;;;;5064144;28;20039;-82
2021/08/08 02:04:43;;;;;;;2.22;1.50;;;15.60;99.90;;;;;;5060315;28;20026;-83
2021/08/08 02:07:16;;;;;;;2.92;1.10;;;15.80;99.90;;;;;;5059719;28;20021;-82
2021/08/08 02:09:42;;;;;;;1.27;0.70;;;16.20;99.90;;;;;;5058518;28;20029;-82
2021/08/08 02:12:08;;;;;;;2.47;1.05;;;;;;;;;;5054117;28;20025;-83
2021/08/08 02:14:34;;;;;;;2.55;1.20;;;15.60;99.90;;;;;;5060273;28;20111;-81
2021/08/08 02:17:00;;;;;;;1.90;0.90;;;15.50;99.90;;;;;;5064597;28;20048;-82
2021/08/08 02:19:27;;;;;;;2.97;0.93;;;16.00;99.90;;;;;;5069489;28;20032;-83
2021/08/08 02:21:53;;;;;;;5.30;1.30;;;;;;;;;;5052152;28;20032;-80
2021/08/08 02:24:19;;;;;;;3.03;0.93;;;;;;;;;;5051253;28;20052;-81
2021/08/08 02:26:45;;;;;;;4.68;1.20;;;15.50;99.90;;;;;;5067083;28;20034;-81
2021/08/08 02:29:11;;;;;;;6.05;1.30;;;15.50;99.90;;;;;;5068451;28;20032;-83
2021/08/08 02:31:42;;;;;;;2.72;1.60;;;15.40;99.90;;;;;;5046742;28;20040;-83
2021/08/08 02:34:08;;;;;;;3.05;1.00;;;15.40;99.90;;;;;;5061270;28;20024;-83
2021/08/08 02:36:34;;;;;;;4.80;1.30;;;18.20;99.90;;;;;;5062763;28;20027;-80
2021/08/08 02:39:00;;;;;;;4.47;1.63;;;15.40;99.90;;;;;;5058806;28;20084;-81
2021/08/08 02:41:29;;;;;;;3.72;1.38;;;15.10;99.90;;;;;;5063637;28;20036;-80
2021/08/08 02:43:55;;;;;;;3.78;1.30;;;15.40;99.90;;;;;;5064489;28;20059;-82
2021/08/08 02:46:21;;;;;;;6.03;1.17;;;15.30;99.90;;;;;;5066998;28;20024;-81
2021/08/08 02:48:47;;;;;;;4.25;1.42;;;;;;;;;;5069771;28;20052;-82
2021/08/08 02:51:13;;;;;;;2.72;1.23;;;15.30;99.90;;;;;;5059397;28;20030;-78
2021/08/08 02:53:39;;;;;;;2.95;1.30;;;17.80;99.90;;;;;;5060657;28;20037;-80
2021/08/08 02:56:05;;;;;;;6.28;1.88;;;16.90;99.90;;;;;;5057335;28;20034;-80
2021/08/08 02:58:31;;;;;;;3.90;1.30;;;15.30;99.90;;;;;;5057573;28;20025;-81
2021/08/08 03:00:56;;;;;;;2.72;1.17;;;15.40;99.90;;;;;;5069087;28;20391;-80
2021/08/08 03:03:22;;;;;;;2.17;1.17;;;15.50;99.90;;;;;;5068725;28;20040;-82
2021/08/08 03:05:49;;;;;;;6.38;1.60;;;15.20;99.90;;;;;;5058580;28;20482;-80
2021/08/08 03:08:14;;;;;;;9.38;1.92;;;16.10;99.90;;;;;;5063835;28;20024;-84
2021/08/08 03:10:40;;;;;;;14.05;1.73;;;;;;;;;;5051634;28;20033;-83
2021/08/08 03:13:06;;;;;;;7.63;1.55;;;15.20;99.90;;;;;;5061005;28;20032;-83
2021/08/08 03:15:31;;;;;;;6.85;1.48;;;15.10;99.90;;;;;;5062060;28;20505;-82
2021/08/08 03:17:57;;;;;;;3.78;1.23;;;16.50;99.90;;;;;;5070200;28;20096;-82
2021/08/08 03:20:23;;;;;;;2.58;1.02;;;17.70;99.90;;;;;;5060509;28;20031;-81
2021/08/08 03:22:49;;;;;;;2.70;1.38;;;;;;;;;;5087902;28;20140;-82
2021/08/08 03:25:15;;;;;;;2.25;1.23;;;;;;;;;;5067147;28;20442;-84
2021/08/08 03:27:40;;;;;;;3.47;1.20;;;15.00;99.90;;;;;;5084893;28;20045;-84
2021/08/08 03:30:07;;;;;;;1.50;1.10;;;15.00;99.90;;;;;;5057776;28;20103;-83
2021/08/08 03:32:36;;;;;;;6.65;1.40;;;15.00;99.90;;;;;;5055317;28;20037;-82
2021/08/08 03:35:03;;;;;;;3.17;1.23;;;15.00;99.90;;;;;;5063309;28;20029;-84
2021/08/08 03:37:28;;;;;;;4.38;1.40;;;15.10;99.90;;;;;;5061085;28;20029;-83
2021/08/08 03:39:54;;;;;;;4.65;1.08;;;;;;;;;;5065712;28;20055;-80
2021/08/08 03:42:20;;;;;;;3.33;1.40;;;15.00;99.90;;;;;;5055207;28;20086;-80
2021/08/08 03:44:46;;;;;;;3.58;1.20;;;;;;;;;;5053553;28;20303;-80
2021/08/08 03:47:12;;;;;;;3.75;1.30;;;15.00;99.90;;;;;;5053698;28;20021;-82
2021/08/08 03:49:37;;;;;;;2.67;1.15;;;15.40;99.90;;;;;;5065595;28;20047;-80
2021/08/08 03:52:03;;;;;;;5.90;1.60;;;17.90;99.90;;;;;;5065827;28;20107;-83
2021/08/08 03:54:30;;;;;;;2.53;1.08;;;;;;;;;;5067646;28;20058;-84
2021/08/08 03:56:56;;;;;;;2.70;1.48;;;;;;;;;;5058550;28;20050;-81
2021/08/08 03:59:21;;;;;;;4.43;1.30;;;15.00;99.90;;;;;;5056052;28;20064;-83
2021/08/08 04:01:47;;;;;;;4.28;1.30;;;18.50;99.90;;;;;;5060994;28;20416;-83
2021/08/08 04:04:13;;;;;;;3.55;1.20;;;;;;;;;;5059724;28;20078;-83
2021/08/08 04:06:39;;;;;;;6.15;1.73;;;;;;;;;;5065494;28;20402;-82
2021/08/08 04:09:05;;;;;;;2.65;1.20;;;;;;;;;;5053769;28;20032;-82
2021/08/08 04:11:30;;;;;;;3.55;1.30;;;14.90;99.90;;;;;;5063648;28;20028;-82
2021/08/08 04:13:56;;;;;;;4.43;1.38;;;14.90;99.90;;;;;;5065414;28;20494;-83
2021/08/08 04:16:22;;;;;;;5.30;1.40;;;;;;;;;;5055822;28;20028;-82
2021/08/08 04:18:48;;;;;;;2.95;1.30;;;14.90;99.90;;;;;;5058373;28;20033;-84
2021/08/08 04:21:14;;;;;;;2.97;1.55;;;16.30;99.90;;;;;;5055296;28;20029;-83
2021/08/08 04:23:39;;;;;;;7.35;1.77;;;16.70;99.90;;;;;;5061657;28;20024;-80
2021/08/08 04:26:05;;;;;;;3.10;1.48;;;;;;;;;;5055220;28;20030;-84
2021/08/08 04:28:31;;;;;;;4.70;1.60;;;14.80;99.90;;;;;;5065993;28;20473;-83
2021/08/08 04:30:57;;;;;;;3.97;1.52;;;14.80;99.90;;;;;;5064181;28;20089;-81
2021/08/08 04:33:22;;;;;;;2.65;1.52;;;16.70;99.90;;;;;;5059221;28;20048;-83
2021/08/08 04:35:48;;;;;;;3.38;1.30;;;14.80;99.90;;;;;;5047787;28;20045;-83
2021/08/08 04:38:14;;;;;;;5.38;1.70;;;;;;;;;;5052057;28;20039;-82
2021/08/08 04:40:40;;;;;;;2.85;1.48;;;;;;;;;;5072883;28;20559;-83
2021/08/08 04:43:06;;;;;;;3.72;1.65;;;14.80;99.90;;;;;;5062376;28;20155;-83
2021/08/08 04:45:32;;;;;;;2.70;1.25;;;;;;;;;;5071120;28;20043;-83
2021/08/08 04:47:58;;;;;;;3.65;1.30;;;;;;;;;;5068485;28;20035;-83
2021/08/08 04:50:24;;;;;;;4.55;1.40;;;;;;;;;;5062907;28;20056;-83
2021/08/08 04:52:50;;;;;;;3.83;1.50;;;;;;;;;;5063781;28;20025;-83
2021/08/08 04:55:16;;;;;;;4.70;2.30;;;14.90;99.90;;;;;;5053775;28;20017;-80
2021/08/08 04:57:43;;;;;;;5.30;1.60;;;;;;;;;;5066594;28;20029;-79
2021/08/08 05:00:09;;;;;;;3.65;1.77;;;14.90;99.90;;;;;;5064268;28;20029;-82
2021/08/08 05:02:36;;;;;;;3.47;1.80;;;14.90;99.90;;;;;;5073638;28;20082;-84
2021/08/08 05:05:05;;;;;;;4.30;2.13;;;14.90;99.90;;;;;;5065404;28;20040;-84
2021/08/08 05:07:35;;;;;;;3.70;2.13;;;14.80;99.90;;;;;;5062337;28;20076;-85
2021/08/08 05:10:01;;;;;;;5.78;2.00;;;15.50;99.90;;;;;;5068988;28;20025;-82
2021/08/08 05:12:27;;;;;;;6.50;3.40;;;;;;;;;;5066937;28;20089;-82
2021/08/08 05:14:53;;;;;;;4.28;2.35;;;14.90;99.90;;;;;;5065439;28;20033;-82
2021/08/08 05:17:19;;;;;;;6.28;2.30;;;;;;;;;;5066429;28;20108;-81
2021/08/08 05:19:45;;;;;;;5.60;2.60;;;;;;;;;;5065269;28;20041;-83
2021/08/08 05:22:11;;;;;;;4.20;2.63;;;;;;;;;;5071457;28;20036;-82
2021/08/08 05:24:37;;;;;;;6.13;2.50;;;;;;;;;;5067269;28;20030;-82
2021/08/08 05:27:03;;;;;;;2.92;2.05;;;15.30;99.90;;;;;;5067098;28;20035;-85
2021/08/08 05:29:29;;;;;;;4.25;1.90;;;;;;;;;;5070140;28;20449;-83
2021/08/08 05:31:54;;;;;;;4.68;1.85;;;15.30;99.90;;;;;;5071841;28;20040;-83
2021/08/08 05:34:20;;;;;;;5.43;2.85;;;;;;;;;;5070212;28;20050;-82
2021/08/08 05:36:46;;;;;;;6.25;1.90;;;;;;;;;;5060557;28;20080;-84
2021/08/08 05:39:12;;;;;;;6.55;1.67;;;;;;;;;;5077178;28;20037;-84
2021/08/08 05:41:38;;;;;;;4.50;1.95;;;;;;;;;;5063658;28;20096;-82
2021/08/08 05:44:04;;;;;;;4.30;1.80;;;15.40;99.90;;;;;;5065511;28;20052;-82
2021/08/08 05:46:30;;;;;;;2.08;1.40;;;;;;;;;;5070162;28;20028;-81
2021/08/08 05:48:56;;;;;;;4.43;2.15;;;;;;;;;;5065899;28;20051;-81
2021/08/08 05:51:22;;;;;;;3.47;1.42;;;15.50;99.90;;;;;;5071276;28;20032;-82
2021/08/08 05:53:48;;;;;;;2.92;1.30;;;;;;;;;;5071249;28;20075;-83
2021/08/08 05:56:14;;;;;;;2.75;1.50;;;;;;;;;;5070371;28;20053;-83
2021/08/08 05:58:40;;;;;;;4.10;1.55;;;;;;;;;;5078539;28;20025;-82
2021/08/08 06:01:05;;;;;;;3.78;1.85;;;15.50;99.90;;;;;;5056741;28;20089;-84
2021/08/08 06:03:31;;;;;;;4.05;2.05;;;;;;;;;;5066079;28;20029;-85
2021/08/08 06:05:57;;;;;;;6.38;1.60;;;;;;;;;;5061751;28;20025;-82
2021/08/08 06:08:23;;;;;;;3.60;1.58;;;;;;;;;;5073858;28;20036;-82
2021/08/08 06:10:50;;;;;;;3.95;2.25;;;;;;;;;;5064353;28;20041;-82
2021/08/08 06:13:16;;;;;;;3.00;1.40;;;;;;;;;;5071113;28;20043;-83
2021/08/08 06:15:42;;;;;;;4.88;1.30;;;;;;;;;;5066343;28;20033;-82
2021/08/08 06:18:09;;;;;;;5.88;1.45;;;;;;;;;;5063331;28;20034;-83
2021/08/08 06:20:35;;;;;;;2.78;1.25;;;;;;;;;;5076315;28;20482;-80
2021/08/08 06:23:01;;;;;;;5.75;1.83;;;16.30;99.90;;;;;;5065318;28;20021;-82
2021/08/08 06:25:27;;;;;;;4.13;1.60;;;;;;;;;;5067628;28;20038;-83
2021/08/08 06:27:53;;;;;;;4.03;1.35;;;;;;;;;;5071567;28;20043;-81
2021/08/08 06:30:19;;;;;;;4.60;1.42;;;;;;;;;;5063525;28;20024;-84
2021/08/08 06:32:45;;;;;;;2.47;1.25;;;16.70;99.90;;;;;;5068328;28;20021;-82
2021/08/08 06:35:11;;;;;;;4.15;1.52;;;17.30;99.90;;;;;;5069948;28;20059;-84
2021/08/08 06:37:40;;;;;;;3.33;1.40;;;16.80;99.90;;;;;;5066157;28;20032;-81
2021/08/08 06:40:07;;;;;;;4.18;1.33;;;16.80;99.90;;;;;;5053468;28;20036;-82
2021/08/08 06:42:32;;;;;;;4.43;1.70;;;16.70;99.90;;;;;;5053217;28;20092;-83
2021/08/08 06:44:58;;;;;;;3.60;1.60;;;19.70;99.90;;;;;;5061714;28;20097;-82
2021/08/08 06:47:24;;;;;;;8.23;1.50;;;;;;;;;;5063710;28;20029;-83
2021/08/08 06:49:50;;;;;;;3.92;1.17;;;;;;;;;;5068321;28;20082;-82
2021/08/08 06:52:16;;;;;;;3.20;1.30;;;;;;;;;;5062060;28;20619;-85
2021/08/08 06:54:42;;;;;;;3.85;1.40;;;;;;;;;;5065434;28;20044;-84
2021/08/08 06:57:08;;;;;;;7.80;1.80;;;;;;;;;;5063033;28;20252;-85
2021/08/08 06:59:38;;;;;;;2.97;1.17;;;17.10;99.90;;;;;;5056910;28;20025;-82
2021/08/08 07:02:03;;;;;;;4.65;1.50;;;20.90;99.90;;;;;;5058538;28;20096;-83
2021/08/08 07:04:29;;;;;;;6.28;1.40;;;19.10;99.90;;;;;;5053191;28;20064;-82
2021/08/08 07:06:55;;;;;;;5.55;1.48;;;;;;;;;;5060924;28;20032;-82
2021/08/08 07:09:21;;;;;;;4.65;1.50;;;;;;;;;;5059094;28;20064;-82
2021/08/08 07:11:47;;;;;;;4.50;1.50;;;;;;;;;;5062625;28;20029;-81
2021/08/08 07:14:13;;;;;;;3.55;1.80;;;17.80;99.90;;;;;;5058661;28;20044;-82
2021/08/08 07:16:38;;;;;;;9.93;3.13;;;17.70;99.90;;;;;;5043870;28;20036;-84
2021/08/08 07:19:04;;;;;;;3.22;1.40;;;;;;;;;;5057387;28;20029;-83
2021/08/08 07:21:31;;;;;;;4.57;1.85;;;17.70;99.90;;;;;;5064668;28;20093;-82
2021/08/08 07:23:58;;;;;;;4.40;1.55;;;;;;;;;;5057126;28;20048;-84
2021/08/08 07:26:24;;;;;;;3.35;1.45;;;;;;;;;;5056432;28;20033;-84
2021/08/08 07:28:50;;;;;;;5.63;1.65;;;;;;;;;;5058521;28;20044;-83
2021/08/08 07:31:16;;;;;;;7.25;1.85;;;17.90;99.90;;;;;;5068886;28;20016;-85
2021/08/08 07:33:42;;;;;;;3.75;1.30;;;;;;;;;;5058720;28;20062;-81
2021/08/08 07:36:07;;;;;;;4.13;1.90;;;17.80;99.90;;;;;;5044074;28;20029;-83
2021/08/08 07:38:33;;;;;;;4.32;1.40;;;17.90;99.90;;;;;;5047170;28;20030;-82
2021/08/08 07:40:59;;;;;;;5.43;1.50;;;17.80;99.90;;;;;;5053660;28;20029;-80
2021/08/08 07:43:24;;;;;;;3.13;1.23;;;17.80;99.90;;;;;;5053460;28;20026;-82
2021/08/08 07:45:50;;;;;;;6.70;1.60;;;;;;;;;;5073761;28;20033;-82
2021/08/08 07:48:16;;;;;;;5.07;1.70;;;17.60;99.90;;;;;;5048123;28;20041;-80
2021/08/08 07:50:41;;;;;;;4.22;1.60;;;17.70;99.90;;;;;;5047073;28;20037;-81
2021/08/08 07:53:07;;;;;;;3.88;1.40;;;;;;;;;;5051147;28;20021;-80
2021/08/08 07:55:33;;;;;;;5.45;1.80;;;17.60;99.90;;;;;;5056841;28;20037;-83
2021/08/08 07:57:59;;;;;;;2.83;1.42;;;17.60;99.90;;;;;;5051425;28;20040;-80
2021/08/08 08:00:25;;;;;;;6.82;1.80;;;;;;;;;;5050201;28;20088;-82
2021/08/08 08:02:51;;;;;;;5.55;1.60;;;;;;;;;;5046487;28;20386;-81
2021/08/08 08:05:16;;;;;;;4.70;1.80;;;17.60;99.90;;;;;;5043123;28;20033;-79
2021/08/08 08:07:42;;;;;;;3.50;1.45;;;18.50;99.90;;;;;;5050433;28;20029;-83
2021/08/08 08:10:08;;;;;;;5.07;1.70;;;17.60;99.90;;;;;;5047851;28;20396;-83
2021/08/08 08:12:34;;;;;;;4.93;1.60;;;17.50;99.90;;;;;;5055658;28;20035;-81
2021/08/08 08:14:59;;;;;;;7.78;3.17;;;17.50;99.90;;;;;;5048392;28;20029;-85
2021/08/08 08:17:25;;;;;;;5.00;1.77;;;17.40;99.90;;;;;;5055735;28;20091;-81
2021/08/08 08:19:50;;;;;;;3.92;1.50;;;17.30;99.90;;;;;;5056562;28;20574;-84
2021/08/08 08:22:16;;;;;;;5.82;1.90;;;17.50;99.90;;;;;;5046115;28;20021;-82
2021/08/08 08:24:45;;;;;;;6.18;1.80;;;17.40;99.90;;;;;;5057599;28;20017;-85
2021/08/08 08:27:11;;;;;;;6.20;1.90;;;17.40;99.90;;;;;;5053176;28;20575;-85
2021/08/08 08:29:38;;;;;;;6.40;2.00;;;;;;;;;;5055144;28;20104;-80
2021/08/08 08:32:09;;;;;;;5.32;1.65;;;17.70;99.90;;;;;;5057273;28;20034;-83
2021/08/08 08:34:34;;;;;;;;;;;18.00;99.90;;;;;;5067700;28;20033;-81
2021/08/08 08:37:00;;;;;;;6.15;1.65;;;;;;;;;;5052342;28;19967;-79
2021/08/08 08:39:26;;;;;;;5.05;1.63;;;18.70;99.90;;;;;;5048019;28;20032;-83
2021/08/08 08:41:54;;;;;;;4.75;1.80;;;19.10;99.90;;;;;;5062625;28;20017;-83
2021/08/08 08:44:22;;;;;;;4.93;1.55;;;19.30;99.90;;;;;;5047027;28;20127;-84
2021/08/08 08:46:48;;;;;;;6.68;1.95;;;;;;;;;;5057366;28;20025;-83
2021/08/08 08:49:20;;;;;;;8.35;2.00;;;19.00;99.90;;;;;;5053524;28;20501;-83
2021/08/08 08:51:53;;;;;;;6.82;1.90;;;19.10;99.90;;;;;;5047465;28;20127;-82
2021/08/08 08:54:19;;;;;;;4.55;1.63;;;;;;;;;;5052805;28;20478;-82
2021/08/08 08:56:45;;;;;;;4.13;1.48;;;;;;;;;;5057676;28;20116;-83
2021/08/08 08:59:11;;;;;;;7.53;2.00;;;19.20;99.90;;;;;;5050562;28;20028;-84
2021/08/08 09:01:39;;;;;;;5.25;1.67;;;;;;;;;;5058757;28;20506;-81
2021/08/08 09:04:05;;;;;;;2.97;1.40;;;;;;;;;;5058056;28;20437;-84
2021/08/08 09:06:31;;;;;;;3.65;1.60;;;;;;;;;;5051016;28;20018;-83
2021/08/08 09:08:58;;;;;;;5.10;1.60;;;19.50;99.90;;;;;;5053378;28;20033;-82
2021/08/08 09:11:24;;;;;;;5.57;1.63;;;;;;;;;;5056918;28;20398;-86
2021/08/08 09:13:57;;;;;;;3.80;1.50;;;19.50;99.50;;;;;;5046740;28;20491;-82
2021/08/08 09:16:25;;;;;;;4.90;1.70;;;19.50;99.80;;;;;;5059409;28;20040;-81
2021/08/08 09:18:55;;;;;;;4.40;2.13;;;19.50;99.90;;;;;;5065426;28;20044;-83
2021/08/08 09:21:23;;;;;;;3.55;1.70;;;19.60;99.90;;;;;;5062122;28;20016;-82
2021/08/08 09:24:00;;;;;;;7.07;2.00;;;19.60;99.90;;;;;;5065715;28;20029;-82
2021/08/08 09:26:34;;;;;;;4.43;1.73;;;19.40;99.90;;;;;;5058058;28;20025;-81
2021/08/08 09:29:13;;;;;;;3.47;1.50;;;19.90;99.20;;;;;;5054405;28;20506;-82
2021/08/08 09:31:49;;;;;;;5.28;1.80;;;19.90;99.60;;;;;;5056051;28;20029;-83
2021/08/08 09:34:25;;;;;;;3.65;1.60;;;20.20;99.50;;;;;;5064232;28;20029;-84
2021/08/08 09:36:53;;;;;;;5.43;2.10;;;20.40;98.80;;;;;;5055431;28;20029;-80
2021/08/08 09:39:43;;;;;;;5.53;1.48;;;20.50;98.40;;;;;;5057736;28;20029;-79
2021/08/08 09:42:26;;;;;;;4.32;1.80;;;20.30;98.20;;;;;;5070935;28;20036;-83
2021/08/08 09:45:01;;;;;;;6.38;2.65;;;19.90;98.80;;;;;;5058012;28;20083;-81
2021/08/08 09:47:38;;;;;;;4.78;1.52;;;19.80;98.80;;;;;;5056571;28;20025;-85
2021/08/08 09:50:05;;;;;;;5.10;1.60;;;20.10;98.30;;;;;;5060134;28;20506;-82
2021/08/08 09:52:32;;;;;;;6.80;1.75;;;20.20;98.60;;;;;;5078377;28;20029;-82
2021/08/08 09:54:58;;;;;;;4.15;1.70;;;20.20;98.00;;;;;;5064330;28;20032;-82
2021/08/08 09:57:23;;;;;;;6.38;1.42;;;20.30;98.00;;;;;;5048483;28;20419;-82
2021/08/08 09:59:51;;;;;;;4.00;1.48;;;20.40;97.60;;;;;;5057790;28;20037;-84
2021/08/08 10:02:19;;;;;;;4.85;1.45;;;20.50;97.40;;;;;;5067494;28;20378;-83
2021/08/08 10:04:45;;;;;;;5.05;1.70;;;;;;;;;;5056355;28;20017;-84
2021/08/08 10:07:13;;;;;;;6.32;1.60;;;20.70;97.00;;;;;;5059857;28;20029;-80
2021/08/08 10:09:39;;;;;;;4.50;1.70;;;22.10;97.00;;;;;;5057270;28;20053;-82
2021/08/08 10:12:23;;;;;;;3.28;1.60;;;20.70;95.20;;;;;;5063823;28;20041;-81
2021/08/08 10:14:54;;;;;;;6.63;2.60;;;20.70;95.60;;;;;;5065071;28;20491;-81
2021/08/08 10:17:20;;;;;;;4.30;1.65;;;;;;;;;;5056584;28;20490;-84
2021/08/08 10:19:48;;;;;;;5.93;1.67;;;20.80;95.60;;;;;;5064000;28;20033;-83
2021/08/08 10:22:17;;;;;;;5.50;1.92;;;20.80;95.20;;;;;;5063757;28;20036;-80
2021/08/08 10:24:43;;;;;;;4.53;1.80;;;20.90;95.70;;;;;;5062998;28;20087;-82
2021/08/08 10:27:10;;;;;;;6.32;2.00;;;;;;;;;;5063270;28;20029;-84
2021/08/08 10:29:35;;;;;;;7.10;1.77;;;21.20;94.50;;;;;;5064877;28;20032;-83
2021/08/08 10:32:01;;;;;;;5.35;2.05;;;;;;;;;;5059039;28;20304;-83
2021/08/08 10:34:31;;;;;;;6.13;1.95;;;21.60;94.20;;;;;;5058276;28;20290;-83
2021/08/08 10:37:13;;;;;;;9.75;2.70;;;;;;;;;;5062375;28;20061;-85
2021/08/08 10:39:44;;;;;;;3.60;1.50;;;21.90;92.40;;;;;;5064861;28;20025;-83
2021/08/08 10:42:10;;;;;;;7.43;2.13;;;;;;;;;;5062240;28;20022;-83
2021/08/08 10:44:48;;;;;;;4.63;1.67;;;21.80;92.90;;;;;;5064018;28;20028;-83
2021/08/08 10:47:33;;;;;;;5.63;1.80;;;21.90;92.10;;;;;;5059633;28;20021;-83
2021/08/08 10:50:15;;;;;;;3.92;1.77;;;22.00;92.30;;;;;;5061399;28;20030;-82
2021/08/08 10:52:45;;;;;;;3.00;1.30;;;22.00;92.80;;;;;;5075733;28;20045;-83
2021/08/08 10:55:38;;;;;;;5.70;1.88;;;22.00;92.70;;;;;;5070596;28;20021;-81
2021/08/08 10:58:15;;;;;;;6.20;1.80;;;22.10;91.70;;;;;;5058677;28;20049;-82
2021/08/08 11:00:42;;;;;;;4.35;1.80;;;22.10;91.00;;;;;;5054230;28;20545;-86
2021/08/08 11:03:13;;;;;;;2.70;1.25;;;22.00;91.60;;;;;;5061435;28;20028;-82
2021/08/08 11:05:39;;;;;;;4.72;1.60;;;;;;;;;;5058915;28;20025;-85
2021/08/08 11:08:07;;;;;;;4.95;1.73;;;21.70;91.60;;;;;;5060629;28;20033;-84
2021/08/08 11:10:55;;;;;;;6.72;2.08;;;21.60;91.60;;;;;;5052296;28;20037;-84
2021/08/08 11:13:26;;;;;;;4.72;1.65;;;21.50;91.70;;;;;;5061776;28;20569;-84
2021/08/08 11:15:53;;;;;;;3.47;1.50;;;21.90;91.00;;;;;;5063597;28;20051;-84
2021/08/08 11:18:33;;;;;;;5.00;1.52;;;22.30;89.60;;;;;;5057948;28;20026;-84
2021/08/08 11:20:59;;;;;;;5.28;1.40;;;;;;;;;;5069908;28;20049;-83
2021/08/08 11:23:29;;;;;;;3.78;1.50;;;;;;;;;;5061742;28;20756;-84
2021/08/08 11:25:56;;;;;;;4.57;1.50;;;;;;;;;;5055682;28;20626;-85
2021/08/08 11:28:22;;;;;;;3.53;1.35;;;21.60;90.60;;;;;;5054732;28;20486;-84
2021/08/08 11:30:48;;;;;;;3.47;1.50;;;;;;;;;;5051964;28;20383;-83
2021/08/08 11:33:14;;;;;;;3.63;1.58;;;21.40;92.00;;;;;;5064365;28;20029;-83
2021/08/08 11:35:42;;;;;;;5.00;1.55;;;21.70;91.40;;;;;;5064034;28;20025;-80
2021/08/08 11:38:16;;;;;;;5.47;1.40;;;22.00;90.30;;;;;;5060116;28;20064;-83
2021/08/08 11:40:44;;;;;;;3.95;1.42;;;22.20;90.10;;;;;;5054549;28;20030;-82
2021/08/08 11:43:10;;;;;;;2.67;1.30;;;;;;;;;;5057423;28;20483;-82
2021/08/08 11:45:47;;;;;;;4.43;1.38;;;21.80;89.80;;;;;;5058603;28;20033;-81
2021/08/08 11:48:22;;;;;;;6.20;1.98;;;21.70;90.50;;;;;;5063003;28;20028;-83
2021/08/08 11:50:58;;;;;;;6.40;1.50;;;21.80;91.00;;;;;;5059730;28;20039;-83
2021/08/08 11:53:37;;;;;;;6.95;1.60;;;21.90;90.60;;;;;;5071469;28;20017;-81
2021/08/08 11:56:32;;;;;;;3.88;1.70;;;21.90;90.50;;;;;;5053027;28;20057;-81
2021/08/08 11:58:58;;;;;;;7.07;1.73;;;22.10;89.80;;;;;;5049267;28;20041;-83
2021/08/08 12:01:24;;;;;;;3.35;1.52;;;;;;;;;;5049878;28;20055;-83
2021/08/08 12:03:51;;;;;;;6.78;1.70;;;22.30;90.00;;;;;;5067949;28;20100;-83
2021/08/08 12:06:23;;;;;;;4.50;1.90;;;24.70;90.80;;;;;;5057709;28;20056;-84
2021/08/08 12:08:51;;;;;;;5.38;1.27;;;22.50;90.10;;;;;;5064429;28;20513;-83
2021/08/08 12:11:20;;;;;;;4.80;1.50;;;23.10;90.40;;;;;;5059725;28;20462;-82
2021/08/08 12:13:46;;;;;;;4.43;1.40;;;;;;;;;;5062101;28;20035;-84
2021/08/08 12:16:13;;;;;;;4.22;1.52;;;22.90;89.30;;;;;;5053791;28;20159;-82
2021/08/08 12:18:39;;;;;;;6.47;1.60;;;23.00;89.10;;;;;;5063002;28;20035;-84
2021/08/08 12:21:14;;;;;;;5.20;2.53;;;22.70;89.00;;;;;;5057101;28;20025;-82
2021/08/08 12:23:49;;;;;;;6.88;1.67;;;22.80;90.00;;;;;;5060252;28;20029;-83
2021/08/08 12:26:25;;;;;;;3.50;1.50;;;22.70;86.60;;;;;;5059373;28;20054;-83
2021/08/08 12:29:08;;;;;;;2.72;1.27;;;22.70;89.10;;;;;;5060128;28;20041;-84
2021/08/08 12:31:37;;;;;;;4.75;1.33;;;22.70;85.70;;;;;;5062962;28;20048;-83
2021/08/08 12:34:03;;;;;;;5.43;1.73;;;;;;;;;;5056466;28;20060;-81
2021/08/08 12:36:43;;;;;;;5.57;1.60;;;22.60;87.20;;;;;;5052353;28;20025;-81
2021/08/08 12:39:10;;;;;;;5.45;1.73;;;22.70;87.60;;;;;;5059478;28;20044;-80
2021/08/08 12:41:41;;;;;;;5.13;1.58;;;22.70;87.70;;;;;;5073919;28;20055;-81
2021/08/08 12:44:10;;;;;;;3.92;1.58;;;22.70;88.30;;;;;;5065367;28;20100;-81
2021/08/08 12:46:39;;;;;;;6.00;1.92;;;23.10;85.00;;;;;;5059408;28;20030;-81
2021/08/08 12:49:09;;;;;;;3.30;1.58;;;23.10;84.20;;;;;;5060179;28;20032;-81
2021/08/08 12:51:35;;;;;;;3.60;1.20;;;;;;;;;;5052644;28;20055;-81
2021/08/08 12:54:01;;;;;;;3.25;1.40;;;;;;;;;;5057518;28;20029;-81
2021/08/08 12:56:27;;;;;;;3.17;1.25;;;23.30;83.50;;;;;;5058440;28;20028;-83
2021/08/08 12:58:54;;;;;;;3.80;1.38;;;23.30;82.40;;;;;;5057727;28;20552;-80
2021/08/08 13:01:21;;;;;;;2.65;0.85;;;23.10;79.70;;;;;;5060838;28;20399;-82
2021/08/08 13:03:47;;;;;;;8.02;1.25;;;;;;;;;;5058831;28;20091;-82
2021/08/08 13:06:13;;;;;;;3.63;1.40;;;;;;;;;;5054246;28;20028;-81
2021/08/08 13:08:39;;;;;;;3.35;1.20;;;;;;;;;;5054097;28;20025;-82
2021/08/08 13:11:05;;;;;;;3.80;1.27;;;;;;;;;;5058375;28;20040;-81
2021/08/08 13:13:31;;;;;;;5.07;1.40;;;;;;;;;;5061975;28;20025;-82
2021/08/08 13:15:57;;;;;;;3.42;0.90;;;;;;;;;;5060672;28;20067;-82
2021/08/08 13:18:23;;;;;;;2.65;1.10;;;22.80;82.50;;;;;;5068670;28;20033;-82
2021/08/08 13:20:49;;;;;;;2.33;1.10;;;22.80;81.20;;;;;;5055442;28;20470;-83
2021/08/08 13:23:38;;;;;;;3.88;1.00;;;22.10;80.90;;;;;;5058674;28;20017;-86
2021/08/08 13:26:05;;;;;;;2.40;1.10;;;;;;;;;;5052204;28;20037;-85
2021/08/08 13:28:31;;;;;;;2.20;1.00;;;;;;;;;;5060722;28;20283;-84